sensor_id;sensor_type;location;lat;lon;timestamp;P1;durP1;ratioP1;P2;durP2;ratioP2
8819;SDS011;4446;50.876;4.736;2022-12-18T00:00:56;35.80;;;17.00;;
8819;SDS011;4446;50.876;4.736;2022-12-18T00:03:23;30.70;;;16.13;;
8819;SDS011;4446;50.876;4.736;2022-12-18T00:05:52;32.27;;;16.80;;
8819;SDS011;4446;50.876;4.736;2022-12-18T00:08:19;31.30;;;15.67;;
8819;SDS011;4446;50.876;4.736;2022-12-18T00:10:46;32.30;;;16.10;;
8819;SDS011;4446;50.876;4.736;2022-12-18T00:13:13;27.77;;;14.67;;
8819;SDS011;4446;50.876;4.736;2022-12-18T00:15:40;33.10;;;15.90;;
8819;SDS011;4446;50.876;4.736;2022-12-18T00:18:07;28.13;;;14.87;;
8819;SDS011;4446;50.876;4.736;2022-12-18T00:20:38;31.47;;;15.53;;
8819;SDS011;4446;50.876;4.736;2022-12-18T00:23:07;31.53;;;15.73;;
8819;SDS011;4446;50.876;4.736;2022-12-18T00:25:34;30.73;;;14.63;;
8819;SDS011;4446;50.876;4.736;2022-12-18T00:28:02;30.47;;;14.80;;
8819;SDS011;4446;50.876;4.736;2022-12-18T00:30:30;28.93;;;14.13;;
8819;SDS011;4446;50.876;4.736;2022-12-18T00:32:57;30.37;;;14.47;;
8819;SDS011;4446;50.876;4.736;2022-12-18T00:35:24;27.30;;;14.37;;
8819;SDS011;4446;50.876;4.736;2022-12-18T00:37:51;26.43;;;14.90;;
8819;SDS011;4446;50.876;4.736;2022-12-18T00:40:19;28.83;;;13.03;;
8819;SDS011;4446;50.876;4.736;2022-12-18T00:42:46;29.70;;;13.67;;
8819;SDS011;4446;50.876;4.736;2022-12-18T00:45:30;23.80;;;13.07;;
8819;SDS011;4446;50.876;4.736;2022-12-18T00:47:57;24.20;;;14.03;;
8819;SDS011;4446;50.876;4.736;2022-12-18T00:50:24;29.63;;;13.70;;
8819;SDS011;4446;50.876;4.736;2022-12-18T00:52:52;25.53;;;13.20;;
8819;SDS011;4446;50.876;4.736;2022-12-18T00:55:20;27.77;;;12.83;;
8819;SDS011;4446;50.876;4.736;2022-12-18T00:57:47;28.13;;;13.67;;
8819;SDS011;4446;50.876;4.736;2022-12-18T01:00:14;26.50;;;13.37;;
8819;SDS011;4446;50.876;4.736;2022-12-18T01:02:41;25.30;;;13.60;;
8819;SDS011;4446;50.876;4.736;2022-12-18T01:05:09;28.97;;;14.97;;
8819;SDS011;4446;50.876;4.736;2022-12-18T01:07:41;28.73;;;14.77;;
8819;SDS011;4446;50.876;4.736;2022-12-18T01:10:09;31.60;;;15.37;;
8819;SDS011;4446;50.876;4.736;2022-12-18T01:12:39;31.63;;;14.87;;
8819;SDS011;4446;50.876;4.736;2022-12-18T01:15:06;31.10;;;14.87;;
8819;SDS011;4446;50.876;4.736;2022-12-18T01:17:34;29.60;;;14.87;;
8819;SDS011;4446;50.876;4.736;2022-12-18T01:20:01;25.07;;;14.03;;
8819;SDS011;4446;50.876;4.736;2022-12-18T01:22:29;28.23;;;14.07;;
8819;SDS011;4446;50.876;4.736;2022-12-18T01:24:55;28.17;;;13.97;;
8819;SDS011;4446;50.876;4.736;2022-12-18T01:27:22;27.47;;;13.97;;
8819;SDS011;4446;50.876;4.736;2022-12-18T01:29:51;25.07;;;13.97;;
8819;SDS011;4446;50.876;4.736;2022-12-18T01:32:17;28.77;;;14.17;;
8819;SDS011;4446;50.876;4.736;2022-12-18T01:34:44;28.00;;;14.03;;
8819;SDS011;4446;50.876;4.736;2022-12-18T01:37:11;31.73;;;14.10;;
8819;SDS011;4446;50.876;4.736;2022-12-18T01:39:38;24.30;;;12.80;;
8819;SDS011;4446;50.876;4.736;2022-12-18T01:42:09;28.97;;;14.53;;
8819;SDS011;4446;50.876;4.736;2022-12-18T01:47:47;25.97;;;12.47;;
8819;SDS011;4446;50.876;4.736;2022-12-18T01:50:18;23.47;;;12.17;;
8819;SDS011;4446;50.876;4.736;2022-12-18T01:52:47;26.67;;;12.50;;
8819;SDS011;4446;50.876;4.736;2022-12-18T01:55:18;23.10;;;12.23;;
8819;SDS011;4446;50.876;4.736;2022-12-18T01:57:48;23.87;;;12.80;;
8819;SDS011;4446;50.876;4.736;2022-12-18T02:00:20;25.63;;;12.13;;
8819;SDS011;4446;50.876;4.736;2022-12-18T02:02:48;24.67;;;13.27;;
8819;SDS011;4446;50.876;4.736;2022-12-18T02:05:16;24.27;;;11.77;;
8819;SDS011;4446;50.876;4.736;2022-12-18T02:07:46;21.83;;;11.37;;
8819;SDS011;4446;50.876;4.736;2022-12-18T02:10:24;24.30;;;11.73;;
8819;SDS011;4446;50.876;4.736;2022-12-18T02:12:56;23.87;;;11.90;;
8819;SDS011;4446;50.876;4.736;2022-12-18T02:15:31;29.47;;;12.33;;
8819;SDS011;4446;50.876;4.736;2022-12-18T02:18:03;23.90;;;12.53;;
8819;SDS011;4446;50.876;4.736;2022-12-18T02:20:35;22.70;;;12.00;;
8819;SDS011;4446;50.876;4.736;2022-12-18T02:23:11;20.57;;;11.13;;
8819;SDS011;4446;50.876;4.736;2022-12-18T02:25:54;23.73;;;12.00;;
8819;SDS011;4446;50.876;4.736;2022-12-18T02:28:31;24.70;;;11.87;;
8819;SDS011;4446;50.876;4.736;2022-12-18T02:31:01;24.73;;;12.30;;
8819;SDS011;4446;50.876;4.736;2022-12-18T02:33:32;26.33;;;14.03;;
8819;SDS011;4446;50.876;4.736;2022-12-18T02:36:01;24.60;;;12.57;;
8819;SDS011;4446;50.876;4.736;2022-12-18T02:38:29;24.63;;;12.97;;
8819;SDS011;4446;50.876;4.736;2022-12-18T02:40:58;23.13;;;12.20;;
8819;SDS011;4446;50.876;4.736;2022-12-18T02:43:26;26.00;;;11.70;;
8819;SDS011;4446;50.876;4.736;2022-12-18T02:45:54;26.73;;;13.63;;
8819;SDS011;4446;50.876;4.736;2022-12-18T02:48:24;26.97;;;14.50;;
8819;SDS011;4446;50.876;4.736;2022-12-18T02:50:56;31.37;;;15.20;;
8819;SDS011;4446;50.876;4.736;2022-12-18T02:53:30;31.90;;;15.10;;
8819;SDS011;4446;50.876;4.736;2022-12-18T02:56:07;27.20;;;14.00;;
8819;SDS011;4446;50.876;4.736;2022-12-18T02:58:41;27.70;;;14.47;;
8819;SDS011;4446;50.876;4.736;2022-12-18T03:01:14;27.60;;;13.63;;
8819;SDS011;4446;50.876;4.736;2022-12-18T03:03:47;27.50;;;14.07;;
8819;SDS011;4446;50.876;4.736;2022-12-18T03:06:18;24.33;;;13.50;;
8819;SDS011;4446;50.876;4.736;2022-12-18T03:08:50;23.47;;;12.60;;
8819;SDS011;4446;50.876;4.736;2022-12-18T03:11:24;24.67;;;12.63;;
8819;SDS011;4446;50.876;4.736;2022-12-18T03:14:24;22.87;;;11.90;;
8819;SDS011;4446;50.876;4.736;2022-12-18T03:16:53;20.67;;;10.37;;
8819;SDS011;4446;50.876;4.736;2022-12-18T03:19:24;20.87;;;11.37;;
8819;SDS011;4446;50.876;4.736;2022-12-18T03:21:56;21.77;;;11.57;;
8819;SDS011;4446;50.876;4.736;2022-12-18T03:24:25;21.70;;;11.00;;
8819;SDS011;4446;50.876;4.736;2022-12-18T03:26:57;21.40;;;11.63;;
8819;SDS011;4446;50.876;4.736;2022-12-18T03:29:27;23.40;;;12.27;;
8819;SDS011;4446;50.876;4.736;2022-12-18T03:32:01;23.27;;;11.90;;
8819;SDS011;4446;50.876;4.736;2022-12-18T03:34:32;22.67;;;11.60;;
8819;SDS011;4446;50.876;4.736;2022-12-18T03:37:01;23.23;;;12.63;;
8819;SDS011;4446;50.876;4.736;2022-12-18T03:39:28;21.30;;;11.43;;
8819;SDS011;4446;50.876;4.736;2022-12-18T03:41:58;25.70;;;12.67;;
8819;SDS011;4446;50.876;4.736;2022-12-18T03:44:32;20.70;;;11.23;;
8819;SDS011;4446;50.876;4.736;2022-12-18T03:47:06;22.17;;;10.80;;
8819;SDS011;4446;50.876;4.736;2022-12-18T03:49:38;22.37;;;11.97;;
8819;SDS011;4446;50.876;4.736;2022-12-18T03:52:11;23.17;;;12.17;;
8819;SDS011;4446;50.876;4.736;2022-12-18T03:54:41;26.57;;;12.67;;
8819;SDS011;4446;50.876;4.736;2022-12-18T03:57:13;23.47;;;12.07;;
8819;SDS011;4446;50.876;4.736;2022-12-18T03:59:43;22.17;;;10.87;;
8819;SDS011;4446;50.876;4.736;2022-12-18T04:02:12;21.83;;;10.40;;
8819;SDS011;4446;50.876;4.736;2022-12-18T04:04:42;22.27;;;11.20;;
8819;SDS011;4446;50.876;4.736;2022-12-18T04:07:11;22.17;;;11.40;;
8819;SDS011;4446;50.876;4.736;2022-12-18T04:09:39;21.57;;;10.67;;
8819;SDS011;4446;50.876;4.736;2022-12-18T04:12:08;21.50;;;10.83;;
8819;SDS011;4446;50.876;4.736;2022-12-18T04:14:36;23.47;;;11.63;;
8819;SDS011;4446;50.876;4.736;2022-12-18T04:17:03;22.07;;;11.30;;
8819;SDS011;4446;50.876;4.736;2022-12-18T04:19:30;23.67;;;11.53;;
8819;SDS011;4446;50.876;4.736;2022-12-18T04:21:57;23.17;;;11.60;;
8819;SDS011;4446;50.876;4.736;2022-12-18T04:24:24;21.60;;;10.87;;
8819;SDS011;4446;50.876;4.736;2022-12-18T04:26:51;23.00;;;10.50;;
8819;SDS011;4446;50.876;4.736;2022-12-18T04:29:18;22.53;;;10.93;;
8819;SDS011;4446;50.876;4.736;2022-12-18T04:31:46;24.73;;;12.10;;
8819;SDS011;4446;50.876;4.736;2022-12-18T04:34:13;19.90;;;11.00;;
8819;SDS011;4446;50.876;4.736;2022-12-18T04:36:40;23.00;;;11.83;;
8819;SDS011;4446;50.876;4.736;2022-12-18T04:39:07;20.40;;;11.07;;
8819;SDS011;4446;50.876;4.736;2022-12-18T04:41:34;21.53;;;10.60;;
8819;SDS011;4446;50.876;4.736;2022-12-18T04:44:01;24.50;;;12.40;;
8819;SDS011;4446;50.876;4.736;2022-12-18T04:46:28;24.33;;;12.43;;
8819;SDS011;4446;50.876;4.736;2022-12-18T04:48:56;25.07;;;12.37;;
8819;SDS011;4446;50.876;4.736;2022-12-18T04:51:23;23.47;;;12.50;;
8819;SDS011;4446;50.876;4.736;2022-12-18T04:53:50;24.30;;;12.13;;
8819;SDS011;4446;50.876;4.736;2022-12-18T04:56:17;22.87;;;11.43;;
8819;SDS011;4446;50.876;4.736;2022-12-18T04:58:44;24.03;;;11.87;;
8819;SDS011;4446;50.876;4.736;2022-12-18T05:01:11;22.70;;;11.60;;
8819;SDS011;4446;50.876;4.736;2022-12-18T05:03:39;24.03;;;11.83;;
8819;SDS011;4446;50.876;4.736;2022-12-18T05:06:08;21.87;;;10.63;;
8819;SDS011;4446;50.876;4.736;2022-12-18T05:08:35;20.50;;;10.17;;
8819;SDS011;4446;50.876;4.736;2022-12-18T05:11:02;19.60;;;9.40;;
8819;SDS011;4446;50.876;4.736;2022-12-18T05:13:33;19.37;;;9.90;;
8819;SDS011;4446;50.876;4.736;2022-12-18T05:16:01;18.40;;;9.50;;
8819;SDS011;4446;50.876;4.736;2022-12-18T05:18:28;20.13;;;10.03;;
8819;SDS011;4446;50.876;4.736;2022-12-18T05:20:55;20.33;;;10.40;;
8819;SDS011;4446;50.876;4.736;2022-12-18T05:23:24;18.63;;;9.73;;
8819;SDS011;4446;50.876;4.736;2022-12-18T05:25:51;17.83;;;9.93;;
8819;SDS011;4446;50.876;4.736;2022-12-18T05:28:19;23.03;;;11.07;;
8819;SDS011;4446;50.876;4.736;2022-12-18T05:30:47;20.50;;;11.03;;
8819;SDS011;4446;50.876;4.736;2022-12-18T05:33:15;21.33;;;11.37;;
8819;SDS011;4446;50.876;4.736;2022-12-18T05:35:42;21.40;;;10.67;;
8819;SDS011;4446;50.876;4.736;2022-12-18T05:38:09;18.73;;;11.00;;
8819;SDS011;4446;50.876;4.736;2022-12-18T05:40:40;19.43;;;10.70;;
8819;SDS011;4446;50.876;4.736;2022-12-18T05:43:08;20.57;;;11.00;;
8819;SDS011;4446;50.876;4.736;2022-12-18T05:45:36;21.00;;;10.63;;
8819;SDS011;4446;50.876;4.736;2022-12-18T05:48:03;18.53;;;10.07;;
8819;SDS011;4446;50.876;4.736;2022-12-18T05:50:33;19.87;;;10.53;;
8819;SDS011;4446;50.876;4.736;2022-12-18T05:53:00;19.47;;;10.50;;
8819;SDS011;4446;50.876;4.736;2022-12-18T05:55:27;20.33;;;10.67;;
8819;SDS011;4446;50.876;4.736;2022-12-18T05:57:56;17.27;;;9.60;;
8819;SDS011;4446;50.876;4.736;2022-12-18T06:00:22;19.17;;;9.60;;
8819;SDS011;4446;50.876;4.736;2022-12-18T06:02:49;19.50;;;9.97;;
8819;SDS011;4446;50.876;4.736;2022-12-18T06:05:16;18.33;;;9.73;;
8819;SDS011;4446;50.876;4.736;2022-12-18T06:07:43;19.53;;;10.40;;
8819;SDS011;4446;50.876;4.736;2022-12-18T06:10:10;20.67;;;10.63;;
8819;SDS011;4446;50.876;4.736;2022-12-18T06:12:37;21.93;;;11.13;;
8819;SDS011;4446;50.876;4.736;2022-12-18T06:15:06;20.77;;;11.13;;
8819;SDS011;4446;50.876;4.736;2022-12-18T06:17:34;22.97;;;11.30;;
8819;SDS011;4446;50.876;4.736;2022-12-18T06:20:02;23.13;;;11.57;;
8819;SDS011;4446;50.876;4.736;2022-12-18T06:22:30;25.43;;;12.03;;
8819;SDS011;4446;50.876;4.736;2022-12-18T06:24:57;22.37;;;11.17;;
8819;SDS011;4446;50.876;4.736;2022-12-18T06:27:24;21.27;;;10.93;;
8819;SDS011;4446;50.876;4.736;2022-12-18T06:29:52;20.40;;;10.73;;
8819;SDS011;4446;50.876;4.736;2022-12-18T06:32:20;22.60;;;11.43;;
8819;SDS011;4446;50.876;4.736;2022-12-18T06:34:47;21.13;;;10.83;;
8819;SDS011;4446;50.876;4.736;2022-12-18T06:37:14;21.33;;;11.07;;
8819;SDS011;4446;50.876;4.736;2022-12-18T06:39:41;21.97;;;11.17;;
8819;SDS011;4446;50.876;4.736;2022-12-18T06:42:08;22.93;;;10.97;;
8819;SDS011;4446;50.876;4.736;2022-12-18T06:44:34;25.00;;;11.37;;
8819;SDS011;4446;50.876;4.736;2022-12-18T06:47:01;23.37;;;11.47;;
8819;SDS011;4446;50.876;4.736;2022-12-18T06:49:30;21.13;;;11.37;;
8819;SDS011;4446;50.876;4.736;2022-12-18T06:51:57;25.27;;;11.40;;
8819;SDS011;4446;50.876;4.736;2022-12-18T06:54:24;20.83;;;11.60;;
8819;SDS011;4446;50.876;4.736;2022-12-18T06:56:51;22.10;;;11.43;;
8819;SDS011;4446;50.876;4.736;2022-12-18T06:59:18;22.87;;;11.90;;
8819;SDS011;4446;50.876;4.736;2022-12-18T07:01:45;24.40;;;12.03;;
8819;SDS011;4446;50.876;4.736;2022-12-18T07:04:11;21.30;;;11.20;;
8819;SDS011;4446;50.876;4.736;2022-12-18T07:06:40;23.43;;;11.17;;
8819;SDS011;4446;50.876;4.736;2022-12-18T07:09:07;22.43;;;11.70;;
8819;SDS011;4446;50.876;4.736;2022-12-18T07:11:34;21.93;;;11.77;;
8819;SDS011;4446;50.876;4.736;2022-12-18T07:14:01;22.83;;;12.03;;
8819;SDS011;4446;50.876;4.736;2022-12-18T07:16:28;21.73;;;10.97;;
8819;SDS011;4446;50.876;4.736;2022-12-18T07:18:55;21.73;;;10.90;;
8819;SDS011;4446;50.876;4.736;2022-12-18T07:21:23;20.63;;;11.17;;
8819;SDS011;4446;50.876;4.736;2022-12-18T07:23:51;22.70;;;11.50;;
8819;SDS011;4446;50.876;4.736;2022-12-18T07:26:21;21.77;;;11.27;;
8819;SDS011;4446;50.876;4.736;2022-12-18T07:28:48;23.73;;;11.50;;
8819;SDS011;4446;50.876;4.736;2022-12-18T07:31:16;23.23;;;11.63;;
8819;SDS011;4446;50.876;4.736;2022-12-18T07:33:45;26.07;;;11.60;;
8819;SDS011;4446;50.876;4.736;2022-12-18T07:36:12;25.33;;;11.57;;
8819;SDS011;4446;50.876;4.736;2022-12-18T07:38:40;23.27;;;12.77;;
8819;SDS011;4446;50.876;4.736;2022-12-18T07:41:09;27.20;;;13.23;;
8819;SDS011;4446;50.876;4.736;2022-12-18T07:43:39;26.83;;;13.23;;
8819;SDS011;4446;50.876;4.736;2022-12-18T07:46:07;25.90;;;13.00;;
8819;SDS011;4446;50.876;4.736;2022-12-18T07:48:35;23.93;;;12.87;;
8819;SDS011;4446;50.876;4.736;2022-12-18T07:51:02;27.03;;;13.23;;
8819;SDS011;4446;50.876;4.736;2022-12-18T07:53:30;25.83;;;12.40;;
8819;SDS011;4446;50.876;4.736;2022-12-18T07:55:58;27.77;;;13.03;;
8819;SDS011;4446;50.876;4.736;2022-12-18T07:58:28;22.90;;;12.73;;
8819;SDS011;4446;50.876;4.736;2022-12-18T08:01:01;25.60;;;12.93;;
8819;SDS011;4446;50.876;4.736;2022-12-18T08:03:29;22.17;;;11.47;;
8819;SDS011;4446;50.876;4.736;2022-12-18T08:05:58;23.20;;;12.00;;
8819;SDS011;4446;50.876;4.736;2022-12-18T08:08:26;22.00;;;11.50;;
8819;SDS011;4446;50.876;4.736;2022-12-18T08:10:53;20.00;;;10.53;;
8819;SDS011;4446;50.876;4.736;2022-12-18T08:13:20;18.93;;;9.97;;
8819;SDS011;4446;50.876;4.736;2022-12-18T08:15:56;21.93;;;10.57;;
8819;SDS011;4446;50.876;4.736;2022-12-18T08:18:24;19.90;;;9.30;;
8819;SDS011;4446;50.876;4.736;2022-12-18T08:20:51;19.03;;;9.53;;
8819;SDS011;4446;50.876;4.736;2022-12-18T08:23:18;18.17;;;9.67;;
8819;SDS011;4446;50.876;4.736;2022-12-18T08:25:45;18.90;;;8.87;;
8819;SDS011;4446;50.876;4.736;2022-12-18T08:28:11;18.90;;;9.27;;
8819;SDS011;4446;50.876;4.736;2022-12-18T08:30:38;20.70;;;10.40;;
8819;SDS011;4446;50.876;4.736;2022-12-18T08:33:07;19.30;;;10.33;;
8819;SDS011;4446;50.876;4.736;2022-12-18T08:35:34;21.40;;;11.20;;
8819;SDS011;4446;50.876;4.736;2022-12-18T08:38:02;20.77;;;10.50;;
8819;SDS011;4446;50.876;4.736;2022-12-18T08:40:30;21.73;;;11.63;;
8819;SDS011;4446;50.876;4.736;2022-12-18T08:42:57;21.30;;;11.33;;
8819;SDS011;4446;50.876;4.736;2022-12-18T08:45:41;20.87;;;10.47;;
8819;SDS011;4446;50.876;4.736;2022-12-18T08:48:10;21.90;;;11.30;;
8819;SDS011;4446;50.876;4.736;2022-12-18T08:50:37;23.03;;;10.87;;
8819;SDS011;4446;50.876;4.736;2022-12-18T08:53:03;21.40;;;11.00;;
8819;SDS011;4446;50.876;4.736;2022-12-18T08:55:30;22.97;;;10.80;;
8819;SDS011;4446;50.876;4.736;2022-12-18T08:57:57;19.87;;;11.30;;
8819;SDS011;4446;50.876;4.736;2022-12-18T09:00:24;22.07;;;11.40;;
8819;SDS011;4446;50.876;4.736;2022-12-18T09:02:51;25.37;;;11.97;;
8819;SDS011;4446;50.876;4.736;2022-12-18T09:05:19;22.13;;;10.73;;
8819;SDS011;4446;50.876;4.736;2022-12-18T09:07:46;23.63;;;11.57;;
8819;SDS011;4446;50.876;4.736;2022-12-18T09:10:13;22.57;;;10.53;;
8819;SDS011;4446;50.876;4.736;2022-12-18T09:12:40;20.47;;;10.90;;
8819;SDS011;4446;50.876;4.736;2022-12-18T09:15:07;19.30;;;10.93;;
8819;SDS011;4446;50.876;4.736;2022-12-18T09:17:35;22.27;;;11.73;;
8819;SDS011;4446;50.876;4.736;2022-12-18T09:20:02;20.87;;;11.20;;
8819;SDS011;4446;50.876;4.736;2022-12-18T09:22:31;19.70;;;11.43;;
8819;SDS011;4446;50.876;4.736;2022-12-18T09:24:58;20.30;;;10.93;;
8819;SDS011;4446;50.876;4.736;2022-12-18T09:27:24;19.37;;;10.77;;
8819;SDS011;4446;50.876;4.736;2022-12-18T09:29:51;18.80;;;10.90;;
8819;SDS011;4446;50.876;4.736;2022-12-18T09:32:18;21.17;;;10.87;;
8819;SDS011;4446;50.876;4.736;2022-12-18T09:34:45;20.57;;;11.47;;
8819;SDS011;4446;50.876;4.736;2022-12-18T09:37:12;19.60;;;11.47;;
8819;SDS011;4446;50.876;4.736;2022-12-18T09:39:40;19.97;;;11.30;;
8819;SDS011;4446;50.876;4.736;2022-12-18T09:42:09;19.97;;;10.63;;
8819;SDS011;4446;50.876;4.736;2022-12-18T09:44:40;21.43;;;11.73;;
8819;SDS011;4446;50.876;4.736;2022-12-18T09:47:11;21.87;;;11.57;;
8819;SDS011;4446;50.876;4.736;2022-12-18T09:49:42;17.60;;;10.17;;
8819;SDS011;4446;50.876;4.736;2022-12-18T09:52:12;18.07;;;11.03;;
8819;SDS011;4446;50.876;4.736;2022-12-18T09:54:46;18.60;;;10.27;;
8819;SDS011;4446;50.876;4.736;2022-12-18T09:57:17;17.10;;;10.80;;
8819;SDS011;4446;50.876;4.736;2022-12-18T09:59:48;18.63;;;11.63;;
8819;SDS011;4446;50.876;4.736;2022-12-18T10:02:19;18.00;;;11.47;;
8819;SDS011;4446;50.876;4.736;2022-12-18T10:04:51;19.83;;;10.97;;
8819;SDS011;4446;50.876;4.736;2022-12-18T10:07:34;17.80;;;11.00;;
8819;SDS011;4446;50.876;4.736;2022-12-18T10:10:34;17.87;;;11.10;;
8819;SDS011;4446;50.876;4.736;2022-12-18T10:13:09;18.67;;;11.13;;
8819;SDS011;4446;50.876;4.736;2022-12-18T10:15:49;19.67;;;11.63;;
8819;SDS011;4446;50.876;4.736;2022-12-18T10:18:25;23.50;;;11.40;;
8819;SDS011;4446;50.876;4.736;2022-12-18T10:21:05;21.20;;;11.80;;
8819;SDS011;4446;50.876;4.736;2022-12-18T10:23:37;23.47;;;13.23;;
8819;SDS011;4446;50.876;4.736;2022-12-18T10:26:11;24.00;;;13.07;;
8819;SDS011;4446;50.876;4.736;2022-12-18T10:28:39;21.93;;;12.50;;
8819;SDS011;4446;50.876;4.736;2022-12-18T10:31:07;22.03;;;12.20;;
8819;SDS011;4446;50.876;4.736;2022-12-18T10:33:42;20.27;;;12.47;;
8819;SDS011;4446;50.876;4.736;2022-12-18T10:36:09;19.40;;;12.03;;
8819;SDS011;4446;50.876;4.736;2022-12-18T10:38:37;22.50;;;12.60;;
8819;SDS011;4446;50.876;4.736;2022-12-18T10:41:04;20.40;;;12.20;;
8819;SDS011;4446;50.876;4.736;2022-12-18T10:43:38;18.13;;;11.40;;
8819;SDS011;4446;50.876;4.736;2022-12-18T10:46:12;22.10;;;12.23;;
8819;SDS011;4446;50.876;4.736;2022-12-18T10:48:53;17.90;;;10.67;;
8819;SDS011;4446;50.876;4.736;2022-12-18T10:51:23;19.63;;;11.70;;
8819;SDS011;4446;50.876;4.736;2022-12-18T10:53:53;20.13;;;12.23;;
8819;SDS011;4446;50.876;4.736;2022-12-18T10:56:23;18.13;;;10.93;;
8819;SDS011;4446;50.876;4.736;2022-12-18T10:58:57;19.37;;;12.00;;
8819;SDS011;4446;50.876;4.736;2022-12-18T11:01:26;22.17;;;12.20;;
8819;SDS011;4446;50.876;4.736;2022-12-18T11:04:01;20.53;;;11.43;;
8819;SDS011;4446;50.876;4.736;2022-12-18T11:06:34;19.97;;;11.87;;
8819;SDS011;4446;50.876;4.736;2022-12-18T11:09:20;20.60;;;12.10;;
8819;SDS011;4446;50.876;4.736;2022-12-18T11:11:49;19.23;;;12.17;;
8819;SDS011;4446;50.876;4.736;2022-12-18T11:14:20;20.03;;;12.37;;
8819;SDS011;4446;50.876;4.736;2022-12-18T11:16:50;21.47;;;12.20;;
8819;SDS011;4446;50.876;4.736;2022-12-18T11:19:23;19.33;;;12.17;;
8819;SDS011;4446;50.876;4.736;2022-12-18T11:21:56;20.77;;;13.27;;
8819;SDS011;4446;50.876;4.736;2022-12-18T11:24:26;21.10;;;12.83;;
8819;SDS011;4446;50.876;4.736;2022-12-18T11:26:56;22.47;;;13.30;;
8819;SDS011;4446;50.876;4.736;2022-12-18T11:29:28;26.73;;;14.30;;
8819;SDS011;4446;50.876;4.736;2022-12-18T11:32:18;21.37;;;13.27;;
8819;SDS011;4446;50.876;4.736;2022-12-18T11:35:03;22.90;;;13.67;;
8819;SDS011;4446;50.876;4.736;2022-12-18T11:37:41;21.67;;;12.60;;
8819;SDS011;4446;50.876;4.736;2022-12-18T11:40:14;21.27;;;12.77;;
8819;SDS011;4446;50.876;4.736;2022-12-18T11:42:45;23.30;;;13.67;;
8819;SDS011;4446;50.876;4.736;2022-12-18T11:45:23;23.87;;;13.80;;
8819;SDS011;4446;50.876;4.736;2022-12-18T11:47:56;23.47;;;13.97;;
8819;SDS011;4446;50.876;4.736;2022-12-18T11:50:28;23.02;;;13.50;;
8819;SDS011;4446;50.876;4.736;2022-12-18T11:52:58;25.73;;;14.33;;
8819;SDS011;4446;50.876;4.736;2022-12-18T11:55:28;21.23;;;13.20;;
8819;SDS011;4446;50.876;4.736;2022-12-18T11:58:04;25.00;;;14.37;;
8819;SDS011;4446;50.876;4.736;2022-12-18T12:00:39;20.87;;;13.90;;
8819;SDS011;4446;50.876;4.736;2022-12-18T12:06:08;21.90;;;13.67;;
8819;SDS011;4446;50.876;4.736;2022-12-18T12:08:45;19.83;;;13.63;;
8819;SDS011;4446;50.876;4.736;2022-12-18T12:11:25;22.90;;;13.77;;
8819;SDS011;4446;50.876;4.736;2022-12-18T12:14:02;26.45;;;14.43;;
8819;SDS011;4446;50.876;4.736;2022-12-18T12:16:41;23.58;;;14.75;;
8819;SDS011;4446;50.876;4.736;2022-12-18T12:19:18;24.23;;;14.87;;
8819;SDS011;4446;50.876;4.736;2022-12-18T12:21:58;24.40;;;15.07;;
8819;SDS011;4446;50.876;4.736;2022-12-18T12:24:36;22.27;;;14.00;;
8819;SDS011;4446;50.876;4.736;2022-12-18T12:27:11;24.13;;;13.77;;
8819;SDS011;4446;50.876;4.736;2022-12-18T12:29:49;26.88;;;16.95;;
8819;SDS011;4446;50.876;4.736;2022-12-18T12:32:27;25.23;;;14.48;;
8819;SDS011;4446;50.876;4.736;2022-12-18T12:35:10;23.40;;;14.40;;
8819;SDS011;4446;50.876;4.736;2022-12-18T12:37:47;20.75;;;14.20;;
8819;SDS011;4446;50.876;4.736;2022-12-18T12:40:20;24.15;;;15.32;;
8819;SDS011;4446;50.876;4.736;2022-12-18T12:42:54;22.42;;;14.75;;
8819;SDS011;4446;50.876;4.736;2022-12-18T12:45:40;22.27;;;13.95;;
8819;SDS011;4446;50.876;4.736;2022-12-18T12:48:16;22.48;;;14.80;;
8819;SDS011;4446;50.876;4.736;2022-12-18T12:50:49;35.65;;;20.98;;
8819;SDS011;4446;50.876;4.736;2022-12-18T12:53:21;27.73;;;16.13;;
8819;SDS011;4446;50.876;4.736;2022-12-18T12:55:52;25.60;;;14.85;;
8819;SDS011;4446;50.876;4.736;2022-12-18T12:58:23;22.42;;;15.00;;
8819;SDS011;4446;50.876;4.736;2022-12-18T13:01:00;24.02;;;14.70;;
8819;SDS011;4446;50.876;4.736;2022-12-18T13:03:37;28.17;;;16.48;;
8819;SDS011;4446;50.876;4.736;2022-12-18T13:06:12;25.88;;;14.38;;
8819;SDS011;4446;50.876;4.736;2022-12-18T13:08:53;22.83;;;14.23;;
8819;SDS011;4446;50.876;4.736;2022-12-18T13:11:29;23.50;;;13.88;;
8819;SDS011;4446;50.876;4.736;2022-12-18T13:14:26;21.27;;;13.35;;
8819;SDS011;4446;50.876;4.736;2022-12-18T13:17:15;25.52;;;14.82;;
8819;SDS011;4446;50.876;4.736;2022-12-18T13:19:51;24.65;;;14.70;;
8819;SDS011;4446;50.876;4.736;2022-12-18T13:22:31;24.83;;;15.35;;
8819;SDS011;4446;50.876;4.736;2022-12-18T13:25:00;24.50;;;14.05;;
8819;SDS011;4446;50.876;4.736;2022-12-18T13:27:46;22.50;;;13.45;;
8819;SDS011;4446;50.876;4.736;2022-12-18T13:30:46;21.88;;;13.55;;
8819;SDS011;4446;50.876;4.736;2022-12-18T13:33:36;22.33;;;14.20;;
8819;SDS011;4446;50.876;4.736;2022-12-18T13:36:12;26.43;;;15.93;;
8819;SDS011;4446;50.876;4.736;2022-12-18T13:38:41;23.33;;;14.65;;
8819;SDS011;4446;50.876;4.736;2022-12-18T13:41:22;24.13;;;14.30;;
8819;SDS011;4446;50.876;4.736;2022-12-18T13:43:51;21.23;;;13.32;;
8819;SDS011;4446;50.876;4.736;2022-12-18T13:46:24;24.42;;;13.90;;
8819;SDS011;4446;50.876;4.736;2022-12-18T13:48:57;23.30;;;14.02;;
8819;SDS011;4446;50.876;4.736;2022-12-18T13:51:29;21.23;;;12.68;;
8819;SDS011;4446;50.876;4.736;2022-12-18T13:53:58;23.02;;;12.95;;
8819;SDS011;4446;50.876;4.736;2022-12-18T13:56:27;25.65;;;14.18;;
8819;SDS011;4446;50.876;4.736;2022-12-18T13:59:08;25.15;;;14.73;;
8819;SDS011;4446;50.876;4.736;2022-12-18T14:01:47;30.98;;;17.27;;
8819;SDS011;4446;50.876;4.736;2022-12-18T14:04:18;24.75;;;14.50;;
8819;SDS011;4446;50.876;4.736;2022-12-18T14:06:49;25.85;;;14.90;;
8819;SDS011;4446;50.876;4.736;2022-12-18T14:09:19;27.67;;;15.68;;
8819;SDS011;4446;50.876;4.736;2022-12-18T14:11:50;23.25;;;12.95;;
8819;SDS011;4446;50.876;4.736;2022-12-18T14:14:40;32.83;;;19.83;;
8819;SDS011;4446;50.876;4.736;2022-12-18T14:17:08;23.30;;;13.65;;
8819;SDS011;4446;50.876;4.736;2022-12-18T14:19:36;26.20;;;16.05;;
8819;SDS011;4446;50.876;4.736;2022-12-18T14:22:12;25.50;;;15.10;;
8819;SDS011;4446;50.876;4.736;2022-12-18T14:24:42;25.73;;;14.30;;
8819;SDS011;4446;50.876;4.736;2022-12-18T14:27:17;35.03;;;18.75;;
8819;SDS011;4446;50.876;4.736;2022-12-18T14:29:48;26.73;;;15.57;;
8819;SDS011;4446;50.876;4.736;2022-12-18T14:32:15;26.67;;;15.32;;
8819;SDS011;4446;50.876;4.736;2022-12-18T14:34:44;24.95;;;14.85;;
8819;SDS011;4446;50.876;4.736;2022-12-18T14:37:16;28.83;;;17.42;;
8819;SDS011;4446;50.876;4.736;2022-12-18T14:39:56;24.60;;;14.57;;
8819;SDS011;4446;50.876;4.736;2022-12-18T14:42:30;25.08;;;13.90;;
8819;SDS011;4446;50.876;4.736;2022-12-18T14:48:06;22.50;;;13.63;;
8819;SDS011;4446;50.876;4.736;2022-12-18T14:50:34;20.60;;;12.68;;
8819;SDS011;4446;50.876;4.736;2022-12-18T14:53:03;23.30;;;14.02;;
8819;SDS011;4446;50.876;4.736;2022-12-18T14:55:30;23.95;;;14.32;;
8819;SDS011;4446;50.876;4.736;2022-12-18T14:57:57;26.70;;;15.80;;
8819;SDS011;4446;50.876;4.736;2022-12-18T15:00:25;27.42;;;15.98;;
8819;SDS011;4446;50.876;4.736;2022-12-18T15:02:53;26.77;;;15.07;;
8819;SDS011;4446;50.876;4.736;2022-12-18T15:05:24;26.37;;;14.90;;
8819;SDS011;4446;50.876;4.736;2022-12-18T15:07:54;27.30;;;15.40;;
8819;SDS011;4446;50.876;4.736;2022-12-18T15:10:23;27.88;;;15.25;;
8819;SDS011;4446;50.876;4.736;2022-12-18T15:13:05;21.95;;;14.30;;
8819;SDS011;4446;50.876;4.736;2022-12-18T15:15:44;24.42;;;15.27;;
8819;SDS011;4446;50.876;4.736;2022-12-18T15:18:13;27.02;;;14.50;;